RCFN

Details ICAO RCFN (TTT)
Name FENGNIN
Region Republic of China (Taiwan)
Timezone Asia/Taipei (UTC+8.0)
Plans Departing 14
Arriving 37
Stats Elevation 143 ft / 44 m (AMSL)
Location 22.754872° 121.101650°
Runways 1
Magnetic Variation 3.942° W
Sunrise 2018-05-27 21:12:30 UTC / 2018-05-28 05:12:30 Local
Sunset 2018-05-28 10:36:02 UTC / 2018-05-28 18:36:02 Local
Advertisement - Login to hide

Runways

ID Width Length Bearing (true) Bearing (mag) Surface Threshold Offset Overrun Length
04 148 ft / 45 m 8,019 ft / 2,444 m 38.51° 42.45° Asphalt 0 ft / 0 m 750 ft / 229 m
22 148 ft / 45 m 8,019 ft / 2,444 m 218.52° 222.46° Asphalt 0 ft / 0 m 745 ft / 227 m

Map

Weather


0- 5 10 15 20 25 30 35+ Temperature / ° C

Clouds and Precipitation
Forecast for 2018-05-28 00:00 UTC. Updated 3 hours ago

Ground ~20,000 ft ~40,000 ft Winds

METAR

RCFN 280200Z 15006KT 100V190 CAVOK 32/23 Q1011 NOSIG RMK A2986

TAF

TAF RCFN 272300Z 2800/2824 15006KT 9999 FEW020 BKN032 TEMPO 2807/2811 07005KT FEW015 BKN022 BKN040 BECMG 2811/2813 35005KT

Frequencies

Recorded 127.00 MHz ATIS
Tower 118.10 MHz TWR
Approach 123.10 MHz TAITUNG APP
Tower 121.90 MHz TWR
Approach 119.40 MHz TAITUNG APP
Warning: Do not use this data for real-world aviation or navigation. No guarantee of current accuracy is given.